Jarbo, California
Current Conditions -  °F | °C
As of 7:53 AM on Friday 31 Oct 2014 (Local Time) from KOVE Reporting Station
Overcast Overcast  
Wind Chill: 62°   Ceiling: 5000
Heat Index: 62°   Visibility: 10mi
Dew Point: 53°   Wind: 9mph
Humidity: 72%   Direction: 200°SSW
Pressure: 29.84"   Gusts: NA
Location:  39.5324°N, 121.648°W
Report Text: KOVE 311453Z AUTO 20008KT 10SM BKN050 OVC100 17/12 A2984 RMK AO2 SLP107 T01670117 55007 $
Loading
Personal Weather Stations






























Interactive Weather Map
Tropical Storm Tracking
New forecast layout! Learn more

10-Day Weather Forecast

Advertisements
Track Severe Weather on mobile